createdAt,value
2023-03-18T00:00:49.185Z,4.35
2023-03-18T00:03:17.511Z,4.93
2023-03-18T00:05:45.687Z,4.63
2023-03-18T00:08:14.942Z,4.80
2023-03-18T00:10:43.001Z,5.82
2023-03-18T00:13:10.877Z,4.70
2023-03-18T00:15:38.818Z,4.50
2023-03-18T00:18:06.760Z,4.60
2023-03-18T00:20:39.464Z,4.30
2023-03-18T00:23:08.752Z,4.75
2023-03-18T00:25:38.880Z,5.70
2023-03-18T00:28:08.091Z,4.57
2023-03-18T00:30:38.335Z,4.53
2023-03-18T00:33:06.344Z,4.90
2023-03-18T00:35:34.437Z,4.57
2023-03-18T00:38:03.994Z,4.72
2023-03-18T00:40:43.243Z,4.65
2023-03-18T00:43:14.280Z,4.72
2023-03-18T00:45:42.739Z,4.75
2023-03-18T00:48:11.155Z,4.68
2023-03-18T00:50:38.980Z,4.53
2023-03-18T00:53:07.016Z,4.70
2023-03-18T00:55:35.176Z,5.07
2023-03-18T00:58:03.096Z,4.55
2023-03-18T01:00:32.560Z,4.32
2023-03-18T01:03:00.640Z,4.28
2023-03-18T01:05:33.980Z,4.60
2023-03-18T01:08:01.837Z,3.92
2023-03-18T01:10:30.654Z,4.80
2023-03-18T01:12:59.328Z,4.18
2023-03-18T01:15:27.479Z,4.07
2023-03-18T01:17:58.376Z,4.20
2023-03-18T01:20:27.109Z,4.43
2023-03-18T01:22:57.088Z,4.53
2023-03-18T01:25:25.467Z,4.15
2023-03-18T01:27:55.747Z,4.00
2023-03-18T01:30:24.700Z,5.13
2023-03-18T01:32:56.291Z,4.45
2023-03-18T01:35:25.660Z,4.53
2023-03-18T01:37:53.594Z,4.07
2023-03-18T01:40:22.419Z,3.90
2023-03-18T01:42:57.721Z,5.18
2023-03-18T01:45:30.510Z,4.28
2023-03-18T01:48:03.026Z,3.75
2023-03-18T01:50:34.524Z,3.88
2023-03-18T01:53:07.375Z,2.70
2023-03-18T01:55:37.361Z,4.97
2023-03-18T01:58:10.088Z,4.38
2023-03-18T02:00:42.839Z,3.95
2023-03-18T02:03:14.033Z,4.40
2023-03-18T02:05:44.328Z,4.40
2023-03-18T02:08:12.442Z,4.53
2023-03-18T02:10:40.606Z,4.13
2023-03-18T02:13:12.452Z,4.10
2023-03-18T02:15:47.763Z,3.72
2023-03-18T02:18:21.338Z,4.82
2023-03-18T02:21:15.850Z,5.43
2023-03-18T02:23:54.181Z,4.85
2023-03-18T02:26:30.684Z,4.22
2023-03-18T02:29:04.785Z,4.40
2023-03-18T02:31:42.768Z,3.92
2023-03-18T02:34:13.436Z,4.43
2023-03-18T02:36:45.313Z,4.00
2023-03-18T02:39:15.478Z,4.05
2023-03-18T02:41:44.859Z,4.22
2023-03-18T02:44:15.033Z,4.28
2023-03-18T02:47:09.024Z,4.40
2023-03-18T02:49:37.687Z,4.40
2023-03-18T02:52:06.894Z,3.90
2023-03-18T02:54:34.852Z,4.50
2023-03-18T02:57:03.037Z,4.30
2023-03-18T02:59:32.649Z,4.30
2023-03-18T03:02:01.432Z,5.10
2023-03-18T03:04:29.852Z,3.92
2023-03-18T03:06:58.320Z,3.60
2023-03-18T03:09:37.180Z,4.80
2023-03-18T03:12:07.892Z,4.30
2023-03-18T03:14:42.032Z,4.55
2023-03-18T03:17:10.820Z,3.95
2023-03-18T03:19:39.006Z,4.28
2023-03-18T03:22:07.118Z,3.78
2023-03-18T03:24:35.217Z,3.45
2023-03-18T03:27:03.672Z,4.50
2023-03-18T03:29:31.571Z,4.30
2023-03-18T03:32:01.976Z,4.72
2023-03-18T03:34:29.914Z,4.78
2023-03-18T03:36:57.872Z,4.10
2023-03-18T03:39:27.466Z,4.40
2023-03-18T03:41:55.601Z,4.35
2023-03-18T03:44:24.364Z,4.05
2023-03-18T03:46:52.474Z,4.85
2023-03-18T03:49:24.634Z,4.45
2023-03-18T03:51:52.688Z,4.25
2023-03-18T03:54:22.060Z,4.45
2023-03-18T03:56:49.961Z,4.43
2023-03-18T03:59:20.616Z,4.65
2023-03-18T04:02:23.685Z,4.13
2023-03-18T04:04:53.500Z,3.95
2023-03-18T04:07:31.655Z,4.03
2023-03-18T04:09:59.796Z,4.43
2023-03-18T04:12:27.723Z,4.43
2023-03-18T04:15:00.849Z,4.50
2023-03-18T04:17:29.403Z,4.47
2023-03-18T04:19:58.681Z,4.38
2023-03-18T04:22:30.805Z,4.40
2023-03-18T04:24:59.247Z,4.25
2023-03-18T04:27:28.155Z,5.25
2023-03-18T04:29:57.965Z,3.92
2023-03-18T04:32:33.787Z,4.72
2023-03-18T04:35:03.413Z,4.57
2023-03-18T04:37:31.533Z,4.30
2023-03-18T04:40:02.209Z,4.72
2023-03-18T04:42:31.092Z,4.30
2023-03-18T04:44:59.442Z,4.30
2023-03-18T04:47:28.076Z,3.92
2023-03-18T04:49:56.158Z,3.90
2023-03-18T04:52:25.838Z,3.83
2023-03-18T04:54:54.948Z,3.95
2023-03-18T04:57:23.106Z,4.05
2023-03-18T04:59:55.525Z,3.90
2023-03-18T05:02:24.146Z,3.42
2023-03-18T05:04:52.308Z,4.18
2023-03-18T05:07:21.652Z,4.22
2023-03-18T05:09:59.720Z,3.95
2023-03-18T05:12:28.256Z,4.55
2023-03-18T05:14:56.404Z,4.85
2023-03-18T05:17:24.392Z,4.22
2023-03-18T05:19:59.284Z,4.45
2023-03-18T05:22:27.543Z,4.18
2023-03-18T05:25:11.479Z,3.92
2023-03-18T05:27:41.826Z,3.95
2023-03-18T05:32:55.007Z,4.85
2023-03-18T05:35:36.473Z,4.50
2023-03-18T05:38:05.085Z,4.47
2023-03-18T05:40:34.484Z,3.95
2023-03-18T05:43:26.241Z,4.63
2023-03-18T05:45:57.758Z,3.22
2023-03-18T05:48:41.642Z,4.32
2023-03-18T05:51:10.456Z,3.83
2023-03-18T05:53:41.100Z,3.97
2023-03-18T05:56:20.310Z,4.30
2023-03-18T05:58:52.220Z,4.38
2023-03-18T06:01:43.204Z,4.63
2023-03-18T06:04:11.425Z,3.78
2023-03-18T06:06:40.776Z,4.25
2023-03-18T06:09:09.110Z,4.40
2023-03-18T06:11:40.034Z,4.82
2023-03-18T06:14:09.854Z,4.53
2023-03-18T06:16:38.163Z,4.40
2023-03-18T06:19:06.731Z,4.57
2023-03-18T06:21:34.835Z,4.47
2023-03-18T06:24:04.885Z,4.30
2023-03-18T06:26:35.176Z,4.95
2023-03-18T06:29:07.103Z,4.75
2023-03-18T06:31:35.510Z,4.75
2023-03-18T06:34:05.482Z,4.38
2023-03-18T06:36:37.553Z,4.78
2023-03-18T06:39:10.687Z,5.80
2023-03-18T06:41:39.622Z,4.78
2023-03-18T06:44:28.034Z,4.43
2023-03-18T06:47:01.669Z,4.80
2023-03-18T06:49:32.954Z,4.93
2023-03-18T06:52:10.555Z,4.70
2023-03-18T06:54:39.165Z,4.65
2023-03-18T06:57:07.582Z,4.60
2023-03-18T06:59:38.199Z,5.32
2023-03-18T07:02:08.651Z,4.80
2023-03-18T07:04:36.657Z,5.03
2023-03-18T07:07:05.959Z,4.68
2023-03-18T07:09:36.412Z,4.13
2023-03-18T07:12:06.432Z,5.00
2023-03-18T07:14:34.472Z,5.25
2023-03-18T07:17:03.910Z,4.65
2023-03-18T07:19:33.060Z,4.90
2023-03-18T07:22:02.320Z,4.55
2023-03-18T07:24:30.382Z,5.10
2023-03-18T07:26:58.862Z,4.53
2023-03-18T07:29:26.834Z,4.78
2023-03-18T07:31:55.117Z,5.30
2023-03-18T07:34:24.476Z,5.40
2023-03-18T07:36:53.096Z,5.05
2023-03-18T07:39:22.588Z,4.97
2023-03-18T07:41:51.728Z,5.43
2023-03-18T07:44:23.233Z,3.92
2023-03-18T07:46:51.471Z,4.82
2023-03-18T07:49:19.476Z,5.43
2023-03-18T07:51:48.777Z,5.82
2023-03-18T07:54:18.087Z,5.03
2023-03-18T07:56:46.013Z,4.47
2023-03-18T07:59:14.873Z,5.32
2023-03-18T08:01:43.490Z,4.88
2023-03-18T08:04:11.827Z,4.97
2023-03-18T08:06:40.176Z,4.80
2023-03-18T08:09:10.654Z,4.93
2023-03-18T08:11:38.765Z,6.60
2023-03-18T08:14:07.268Z,5.25
2023-03-18T08:16:35.301Z,5.00
2023-03-18T08:19:03.255Z,4.30
2023-03-18T08:21:31.658Z,4.95
2023-03-18T08:23:59.571Z,4.68
2023-03-18T08:26:28.852Z,4.95
2023-03-18T08:28:56.753Z,4.72
2023-03-18T08:31:24.678Z,4.78
2023-03-18T08:33:54.218Z,4.50
2023-03-18T08:36:22.661Z,4.78
2023-03-18T08:38:50.707Z,4.95
2023-03-18T08:41:18.588Z,4.63
2023-03-18T08:43:48.097Z,5.43
2023-03-18T08:46:16.200Z,4.80
2023-03-18T08:48:44.148Z,5.50
2023-03-18T08:51:12.177Z,4.80
2023-03-18T08:53:40.115Z,4.65
2023-03-18T08:56:08.956Z,5.22
2023-03-18T08:58:37.187Z,4.85
2023-03-18T09:01:08.696Z,5.03
2023-03-18T09:03:38.041Z,4.88
2023-03-18T09:06:06.477Z,4.88
2023-03-18T09:08:34.608Z,4.50
2023-03-18T09:11:02.453Z,4.57
2023-03-18T09:13:30.436Z,4.32
2023-03-18T09:15:58.343Z,4.25
2023-03-18T09:18:28.270Z,4.50
2023-03-18T09:20:56.577Z,4.75
2023-03-18T09:23:26.294Z,4.60
2023-03-18T09:25:54.820Z,4.60
2023-03-18T09:28:22.836Z,5.03
2023-03-18T09:30:51.173Z,4.43
2023-03-18T09:33:19.594Z,4.82
2023-03-18T09:35:49.498Z,4.68
2023-03-18T09:38:19.612Z,4.53
2023-03-18T09:40:56.231Z,4.40
2023-03-18T09:43:50.549Z,5.15
2023-03-18T09:46:26.056Z,4.93
2023-03-18T09:49:14.920Z,4.63
2023-03-18T09:51:54.611Z,4.53
2023-03-18T09:54:33.081Z,4.50
2023-03-18T09:57:02.107Z,4.25
2023-03-18T09:59:38.215Z,4.38
2023-03-18T10:02:16.931Z,4.25
2023-03-18T10:04:50.366Z,4.47
2023-03-18T10:07:23.782Z,4.25
2023-03-18T10:09:55.599Z,5.25
2023-03-18T10:12:32.355Z,4.53
2023-03-18T10:15:16.295Z,4.80
2023-03-18T10:17:47.485Z,5.43
2023-03-18T10:20:26.351Z,4.50
2023-03-18T10:23:03.626Z,4.70
2023-03-18T10:25:37.371Z,4.57
2023-03-18T10:28:37.557Z,4.75
2023-03-18T10:31:19.568Z,4.72
2023-03-18T10:33:55.501Z,4.57
2023-03-18T10:36:29.422Z,4.60
2023-03-18T10:39:01.260Z,4.85
2023-03-18T10:41:34.204Z,4.85
2023-03-18T10:44:04.734Z,4.35
2023-03-18T10:46:35.329Z,4.78
2023-03-18T10:49:08.279Z,4.22
2023-03-18T10:51:41.194Z,4.65
2023-03-18T10:54:16.828Z,4.90
2023-03-18T10:56:44.997Z,4.78
2023-03-18T10:59:16.830Z,4.75
2023-03-18T11:01:48.413Z,4.63
2023-03-18T11:04:19.372Z,4.80
2023-03-18T11:06:50.689Z,4.40
2023-03-18T11:09:22.248Z,4.22
2023-03-18T11:11:51.494Z,4.88
2023-03-18T11:14:22.863Z,4.15
2023-03-18T11:16:58.361Z,4.55
2023-03-18T11:19:30.158Z,4.15
2023-03-18T11:22:04.522Z,4.15
2023-03-18T11:24:39.516Z,4.00
2023-03-18T11:27:26.503Z,3.72
2023-03-18T11:29:58.129Z,3.60
2023-03-18T11:32:29.069Z,3.33
2023-03-18T11:35:00.842Z,3.60
2023-03-18T11:37:32.883Z,3.13
2023-03-18T11:40:26.281Z,3.47
2023-03-18T11:42:58.914Z,3.45
2023-03-18T11:45:45.009Z,3.45
2023-03-18T11:48:18.645Z,4.45
2023-03-18T11:51:02.243Z,4.00
2023-03-18T11:56:17.101Z,4.13
2023-03-18T11:59:12.715Z,4.25
2023-03-18T12:01:48.883Z,3.67
2023-03-18T12:04:44.994Z,3.92
2023-03-18T12:07:26.529Z,3.78
2023-03-18T12:10:03.851Z,3.28
2023-03-18T12:12:50.110Z,3.17
2023-03-18T12:15:34.690Z,3.63
2023-03-18T12:18:11.495Z,3.30
2023-03-18T12:20:50.675Z,2.92
2023-03-18T12:23:38.177Z,3.55
2023-03-18T12:26:09.558Z,3.28
2023-03-18T12:28:48.248Z,3.00
2023-03-18T12:31:50.069Z,3.20
2023-03-18T12:34:34.268Z,3.15
2023-03-18T12:37:16.538Z,3.90
2023-03-18T12:40:12.535Z,3.45
2023-03-18T12:42:56.062Z,3.30
2023-03-18T12:48:00.612Z,3.50
2023-03-18T12:50:33.159Z,3.28
2023-03-18T12:53:03.708Z,3.30
2023-03-18T12:55:35.414Z,4.05
2023-03-18T12:58:07.474Z,3.75
2023-03-18T13:00:43.551Z,3.30
2023-03-18T13:03:26.305Z,3.22
2023-03-18T13:05:58.500Z,3.10
2023-03-18T13:08:46.716Z,2.80
2023-03-18T13:11:31.064Z,2.97
2023-03-18T13:14:04.691Z,2.70
2023-03-18T13:16:36.650Z,3.00
2023-03-18T13:19:04.924Z,3.30
2023-03-18T13:21:37.522Z,2.92
2023-03-18T13:24:24.938Z,3.72
2023-03-18T13:27:15.387Z,3.60
2023-03-18T13:29:52.676Z,3.47
2023-03-18T13:32:36.135Z,4.10
2023-03-18T13:35:37.909Z,3.25
2023-03-18T13:38:30.703Z,3.50
2023-03-18T13:41:13.881Z,3.80
2023-03-18T13:43:49.178Z,3.58
2023-03-18T13:46:22.214Z,3.80
2023-03-18T13:51:52.346Z,3.83
2023-03-18T13:54:21.597Z,4.32
2023-03-18T13:56:55.550Z,4.43
2023-03-18T13:59:46.914Z,4.30
2023-03-18T14:02:43.577Z,4.55
2023-03-18T14:05:40.140Z,4.15
2023-03-18T14:08:52.823Z,4.43
2023-03-18T14:11:53.023Z,3.92
2023-03-18T14:14:56.823Z,4.65
2023-03-18T14:17:34.687Z,4.40
2023-03-18T14:20:27.366Z,4.40
2023-03-18T14:23:17.766Z,4.35
2023-03-18T14:25:54.453Z,4.15
2023-03-18T14:28:26.834Z,4.40
2023-03-18T14:31:13.865Z,3.97
2023-03-18T14:33:58.374Z,4.28
2023-03-18T14:36:46.677Z,4.03
2023-03-18T14:39:20.480Z,3.42
2023-03-18T14:41:54.365Z,3.75
2023-03-18T14:44:25.374Z,4.38
2023-03-18T14:46:59.256Z,3.80
2023-03-18T14:49:37.118Z,4.20
2023-03-18T14:52:12.439Z,3.55
2023-03-18T14:54:46.032Z,3.20
2023-03-18T14:57:14.248Z,3.60
2023-03-18T14:59:42.881Z,4.05
2023-03-18T15:02:23.294Z,3.60
2023-03-18T15:04:56.204Z,3.08
2023-03-18T15:07:34.637Z,2.92
2023-03-18T15:10:10.893Z,2.95
2023-03-18T15:12:39.694Z,3.00
2023-03-18T15:15:14.163Z,2.70
2023-03-18T15:17:46.718Z,3.50
2023-03-18T15:20:15.723Z,2.97
2023-03-18T15:22:44.719Z,2.83
2023-03-18T15:25:20.574Z,3.35
2023-03-18T15:27:49.692Z,3.20
2023-03-18T15:30:29.261Z,2.78
2023-03-18T15:33:05.610Z,3.20
2023-03-18T15:35:34.131Z,3.08
2023-03-18T15:38:13.340Z,3.10
2023-03-18T15:40:51.892Z,2.95
2023-03-18T15:43:30.426Z,3.00
2023-03-18T15:46:00.543Z,2.70
2023-03-18T15:48:34.949Z,3.45
2023-03-18T15:51:05.363Z,3.10
2023-03-18T15:53:40.487Z,3.25
2023-03-18T15:56:19.980Z,3.10
2023-03-18T15:58:59.213Z,3.20
2023-03-18T16:01:27.521Z,2.67
2023-03-18T16:03:55.573Z,3.47
2023-03-18T16:06:24.463Z,2.97
2023-03-18T16:08:52.480Z,2.47
2023-03-18T16:11:24.165Z,2.85
2023-03-18T16:13:53.191Z,3.17
2023-03-18T16:16:27.699Z,2.72
2023-03-18T16:18:57.254Z,2.90
2023-03-18T16:21:25.145Z,4.05
2023-03-18T16:23:53.096Z,2.90
2023-03-18T16:26:22.661Z,2.90
2023-03-18T16:28:50.536Z,2.78
2023-03-18T16:31:18.749Z,2.15
2023-03-18T16:33:47.306Z,2.88
2023-03-18T16:36:28.079Z,2.97
2023-03-18T16:38:56.117Z,3.10
2023-03-18T16:41:25.911Z,2.80
2023-03-18T16:43:53.868Z,3.10
2023-03-18T16:46:22.002Z,2.55
2023-03-18T16:48:50.429Z,3.22
2023-03-18T16:51:19.567Z,3.80
2023-03-18T16:53:48.396Z,3.22
2023-03-18T16:56:18.187Z,3.08
2023-03-18T16:58:47.436Z,4.45
2023-03-18T17:01:19.365Z,4.15
2023-03-18T17:03:48.128Z,3.30
2023-03-18T17:06:16.177Z,2.97
2023-03-18T17:08:44.124Z,3.50
2023-03-18T17:11:18.896Z,3.15
2023-03-18T17:13:48.726Z,3.42
2023-03-18T17:16:20.511Z,3.40
2023-03-18T17:18:49.527Z,3.38
2023-03-18T17:21:17.799Z,3.28
2023-03-18T17:23:45.754Z,5.72
2023-03-18T17:26:15.860Z,5.05
2023-03-18T17:28:46.411Z,5.50
2023-03-18T17:31:16.621Z,6.40
2023-03-18T17:33:44.609Z,5.57
2023-03-18T17:36:12.552Z,6.40
2023-03-18T17:38:40.534Z,6.28
2023-03-18T17:41:15.885Z,5.45
2023-03-18T17:43:44.100Z,5.00
2023-03-18T17:46:12.167Z,4.93
2023-03-18T17:48:41.585Z,4.75
2023-03-18T17:51:15.419Z,4.35
2023-03-18T17:53:45.642Z,3.53
2023-03-18T17:56:15.833Z,4.93
2023-03-18T17:58:45.630Z,5.70
2023-03-18T18:01:16.366Z,5.93
2023-03-18T18:03:45.626Z,4.55
2023-03-18T18:06:18.741Z,3.80
2023-03-18T18:08:47.077Z,5.05
2023-03-18T18:11:20.124Z,4.07
2023-03-18T18:13:49.142Z,5.07
2023-03-18T18:16:17.760Z,4.40
2023-03-18T18:18:49.682Z,4.45
2023-03-18T18:21:21.172Z,3.78
2023-03-18T18:23:50.415Z,3.88
2023-03-18T18:26:21.331Z,3.92
2023-03-18T18:28:51.085Z,3.90
2023-03-18T18:31:21.171Z,4.13
2023-03-18T18:33:51.075Z,4.20
2023-03-18T18:36:19.248Z,5.03
2023-03-18T18:38:47.229Z,5.00
2023-03-18T18:41:15.272Z,5.20
2023-03-18T18:43:43.205Z,5.32
2023-03-18T18:46:14.824Z,4.80
2023-03-18T18:48:45.061Z,6.43
2023-03-18T18:51:18.330Z,6.05
2023-03-18T18:56:18.553Z,5.32
2023-03-18T18:58:47.291Z,5.75
2023-03-18T19:01:16.034Z,5.57
2023-03-18T19:03:44.549Z,5.40
2023-03-18T19:06:24.717Z,5.72
2023-03-18T19:08:53.941Z,6.18
2023-03-18T19:11:22.297Z,5.53
2023-03-18T19:13:50.599Z,5.63
2023-03-18T19:16:27.463Z,5.03
2023-03-18T19:18:55.580Z,6.30
2023-03-18T19:21:24.949Z,5.97
2023-03-18T19:23:52.837Z,7.15
2023-03-18T19:26:21.451Z,7.00
2023-03-18T19:28:58.802Z,6.75
2023-03-18T19:31:30.634Z,8.15
2023-03-18T19:34:00.506Z,7.57
2023-03-18T19:36:32.657Z,7.25
2023-03-18T19:39:03.050Z,7.40
2023-03-18T19:41:31.440Z,7.00
2023-03-18T19:44:04.096Z,8.52
2023-03-18T19:46:36.555Z,8.20
2023-03-18T19:49:04.608Z,7.80
2023-03-18T19:51:34.002Z,6.45
2023-03-18T19:54:02.206Z,6.43
2023-03-18T19:56:31.430Z,6.95
2023-03-18T19:59:00.357Z,7.70
2023-03-18T20:01:29.428Z,7.55
2023-03-18T20:03:59.061Z,9.23
2023-03-18T20:06:27.779Z,8.18
2023-03-18T20:08:57.132Z,7.30
2023-03-18T20:11:25.261Z,7.30
2023-03-18T20:13:53.228Z,8.05
2023-03-18T20:16:21.852Z,7.50
2023-03-18T20:18:49.778Z,7.53
2023-03-18T20:21:24.627Z,7.35
2023-03-18T20:23:53.936Z,6.72
2023-03-18T20:26:23.985Z,7.00
2023-03-18T20:28:55.499Z,6.38
2023-03-18T20:31:23.465Z,6.35
2023-03-18T20:33:51.489Z,7.05
2023-03-18T20:36:20.696Z,7.25
2023-03-18T20:38:50.021Z,7.82
2023-03-18T20:41:19.117Z,7.10
2023-03-18T20:43:49.347Z,7.32
2023-03-18T20:46:18.359Z,7.90
2023-03-18T20:48:48.955Z,7.20
2023-03-18T20:51:21.960Z,8.85
2023-03-18T20:53:50.637Z,10.35
2023-03-18T20:56:22.355Z,10.55
2023-03-18T20:58:52.100Z,10.45
2023-03-18T21:01:20.376Z,9.75
2023-03-18T21:03:49.010Z,9.05
2023-03-18T21:06:19.209Z,7.53
2023-03-18T21:08:47.077Z,6.55
2023-03-18T21:11:23.213Z,6.40
2023-03-18T21:13:52.781Z,6.85
2023-03-18T21:16:21.477Z,6.68
2023-03-18T21:18:49.959Z,6.88
2023-03-18T21:21:24.080Z,7.10
2023-03-18T21:23:53.045Z,7.20
2023-03-18T21:26:21.700Z,7.35
2023-03-18T21:28:49.639Z,6.75
2023-03-18T21:31:26.147Z,6.88
2023-03-18T21:33:55.297Z,6.72
2023-03-18T21:36:23.482Z,6.63
2023-03-18T21:38:51.459Z,7.13
2023-03-18T21:41:22.100Z,7.00
2023-03-18T21:43:51.020Z,6.60
2023-03-18T21:46:21.193Z,7.28
2023-03-18T21:48:50.934Z,7.50
2023-03-18T21:51:38.177Z,7.20
2023-03-18T21:54:07.527Z,6.55
2023-03-18T21:56:35.487Z,6.82
2023-03-18T21:59:03.402Z,6.93
2023-03-18T22:01:32.509Z,6.50
2023-03-18T22:04:02.161Z,6.57
2023-03-18T22:06:30.175Z,6.25
2023-03-18T22:08:58.145Z,6.70
2023-03-18T22:11:26.190Z,7.07
2023-03-18T22:13:54.525Z,5.70
2023-03-18T22:16:22.651Z,5.85
2023-03-18T22:18:51.358Z,6.22
2023-03-18T22:21:24.315Z,6.10
2023-03-18T22:23:52.674Z,6.15
2023-03-18T22:26:21.845Z,6.38
2023-03-18T22:28:50.587Z,6.72
2023-03-18T22:31:21.815Z,7.25
2023-03-18T22:33:50.961Z,6.90
2023-03-18T22:36:22.626Z,8.02
2023-03-18T22:38:50.924Z,7.90
2023-03-18T22:41:21.526Z,8.50
2023-03-18T22:43:53.565Z,9.68
2023-03-18T22:46:21.522Z,8.95
2023-03-18T22:48:49.510Z,9.20
2023-03-18T22:51:24.644Z,9.27
2023-03-18T22:53:54.541Z,9.63
2023-03-18T22:56:24.612Z,10.35
2023-03-18T22:58:56.036Z,8.45
2023-03-18T23:01:29.674Z,8.35
2023-03-18T23:03:57.907Z,8.85
2023-03-18T23:06:30.216Z,8.05
2023-03-18T23:08:58.518Z,8.77
2023-03-18T23:11:27.189Z,8.45
2023-03-18T23:13:55.301Z,8.20
2023-03-18T23:16:26.069Z,8.27
2023-03-18T23:18:54.490Z,7.78
2023-03-18T23:21:27.367Z,7.78
2023-03-18T23:24:01.024Z,8.32
2023-03-18T23:26:28.944Z,7.88
2023-03-18T23:28:56.898Z,7.57
2023-03-18T23:31:24.896Z,7.13
2023-03-18T23:33:56.341Z,8.10
2023-03-18T23:36:24.429Z,7.93
2023-03-18T23:38:54.892Z,8.32
2023-03-18T23:41:23.123Z,7.47
2023-03-18T23:43:51.103Z,7.32
2023-03-18T23:46:19.160Z,7.18
2023-03-18T23:48:47.114Z,7.45
2023-03-18T23:51:15.005Z,7.30
2023-03-18T23:53:42.850Z,7.18
2023-03-18T23:56:13.672Z,7.28
2023-03-18T23:58:41.638Z,6.70
